createdAt,value
2018-02-04T00:02:21.014Z,2.00
2018-02-04T00:04:48.956Z,1.90
2018-02-04T00:07:18.236Z,1.80
2018-02-04T00:09:46.331Z,2.70
2018-02-04T00:12:15.322Z,2.03
2018-02-04T00:14:44.180Z,1.73
2018-02-04T00:17:12.104Z,1.73
2018-02-04T00:19:39.872Z,1.57
2018-02-04T00:22:08.150Z,2.00
2018-02-04T00:24:35.713Z,2.20
2018-02-04T00:27:03.240Z,2.10
2018-02-04T00:29:30.806Z,1.53
2018-02-04T00:31:58.416Z,1.43
2018-02-04T00:34:25.942Z,1.90
2018-02-04T00:36:53.513Z,1.97
2018-02-04T00:39:21.899Z,2.20
2018-02-04T00:41:49.482Z,1.80
2018-02-04T00:44:17.017Z,1.77
2018-02-04T00:46:44.541Z,1.97
2018-02-04T00:49:12.117Z,2.17
2018-02-04T00:51:39.655Z,1.43
2018-02-04T00:54:07.616Z,1.90
2018-02-04T00:56:35.193Z,2.40
2018-02-04T00:59:02.789Z,1.90
2018-02-04T01:01:30.357Z,1.47
2018-02-04T01:03:57.946Z,1.40
2018-02-04T01:06:26.493Z,1.60
2018-02-04T01:08:54.054Z,1.33
2018-02-04T01:11:21.631Z,1.20
2018-02-04T01:13:49.157Z,1.70
2018-02-04T01:16:16.735Z,1.53
2018-02-04T01:18:44.675Z,1.87
2018-02-04T01:21:12.242Z,2.07
2018-02-04T01:23:40.179Z,1.77
2018-02-04T01:26:08.020Z,1.90
2018-02-04T01:28:35.545Z,1.70
2018-02-04T01:31:03.115Z,1.60
2018-02-04T01:33:30.942Z,2.00
2018-02-04T01:35:58.833Z,1.60
2018-02-04T01:38:26.734Z,1.57
2018-02-04T01:40:54.327Z,1.53
2018-02-04T01:43:21.863Z,1.37
2018-02-04T01:45:49.719Z,1.63
2018-02-04T01:48:17.662Z,1.57
2018-02-04T01:50:45.230Z,1.70
2018-02-04T01:53:12.814Z,1.30
2018-02-04T01:55:40.346Z,1.40
2018-02-04T01:58:08.199Z,1.57
2018-02-04T02:00:35.773Z,2.27
2018-02-04T02:03:03.347Z,1.73
2018-02-04T02:05:30.938Z,1.70
2018-02-04T02:07:58.470Z,1.57
2018-02-04T02:10:25.998Z,1.60
2018-02-04T02:12:53.570Z,1.83
2018-02-04T02:15:21.361Z,1.43
2018-02-04T02:17:48.933Z,2.10
2018-02-04T02:20:16.467Z,1.40
2018-02-04T02:22:44.342Z,1.67
2018-02-04T02:25:12.731Z,1.67
2018-02-04T02:27:40.480Z,1.63
2018-02-04T02:30:08.016Z,1.50
2018-02-04T02:32:36.621Z,1.97
2018-02-04T02:35:04.213Z,1.73
2018-02-04T02:37:31.747Z,1.70
2018-02-04T02:39:59.294Z,1.80
2018-02-04T02:42:26.857Z,1.57
2018-02-04T02:44:54.390Z,1.50
2018-02-04T02:47:22.288Z,1.90
2018-02-04T02:49:49.870Z,1.60
2018-02-04T02:52:17.417Z,1.97
2018-02-04T02:54:44.954Z,1.93
2018-02-04T02:57:12.522Z,1.70
2018-02-04T02:59:40.098Z,1.77
2018-02-04T03:02:07.766Z,1.37
2018-02-04T03:04:35.339Z,1.60
2018-02-04T03:07:02.875Z,1.63
2018-02-04T03:09:30.458Z,1.43
2018-02-04T03:11:57.986Z,1.30
2018-02-04T03:14:25.852Z,1.73
2018-02-04T03:16:53.417Z,2.07
2018-02-04T03:19:20.988Z,1.67
2018-02-04T03:21:48.518Z,1.67
2018-02-04T03:24:16.309Z,1.60
2018-02-04T03:26:43.829Z,2.10
2018-02-04T03:29:11.362Z,2.03
2018-02-04T03:31:39.429Z,1.70
2018-02-04T03:34:06.953Z,1.63
2018-02-04T03:36:34.527Z,1.73
2018-02-04T03:39:02.110Z,1.73
2018-02-04T03:41:29.650Z,2.37
2018-02-04T03:43:57.552Z,1.97
2018-02-04T03:46:25.085Z,2.23
2018-02-04T03:48:52.641Z,1.47
2018-02-04T03:51:20.214Z,1.77
2018-02-04T03:53:48.547Z,1.40
2018-02-04T03:56:16.506Z,2.20
2018-02-04T03:58:44.030Z,1.77
2018-02-04T04:01:11.585Z,1.90
2018-02-04T04:03:39.152Z,1.73
2018-02-04T04:06:06.718Z,1.47
2018-02-04T04:08:34.310Z,1.70
2018-02-04T04:11:02.026Z,1.27
2018-02-04T04:13:29.556Z,1.87
2018-02-04T04:15:57.817Z,1.90
2018-02-04T04:18:25.358Z,1.73
2018-02-04T04:20:53.031Z,1.53
2018-02-04T04:23:20.801Z,1.63
2018-02-04T04:25:48.566Z,1.90
2018-02-04T04:37:24.509Z,1.53
2018-02-04T04:39:52.078Z,1.87
2018-02-04T04:42:19.645Z,1.80
2018-02-04T04:44:47.187Z,1.40
2018-02-04T04:47:15.128Z,1.50
2018-02-04T04:49:42.659Z,1.60
2018-02-04T04:52:10.261Z,1.70
2018-02-04T04:54:37.793Z,1.20
2018-02-04T04:57:05.330Z,1.50
2018-02-04T04:59:33.092Z,1.47
2018-02-04T05:02:00.671Z,1.60
2018-02-04T05:04:28.206Z,1.97
2018-02-04T05:06:55.769Z,1.90
2018-02-04T05:09:23.298Z,2.70
2018-02-04T05:11:51.075Z,4.10
2018-02-04T05:14:18.607Z,3.33
2018-02-04T05:16:46.182Z,3.60
2018-02-04T05:19:13.706Z,2.27
2018-02-04T05:21:41.335Z,1.93
2018-02-04T05:24:08.859Z,1.87
2018-02-04T05:26:36.640Z,2.70
2018-02-04T05:29:04.205Z,2.27
2018-02-04T05:31:31.738Z,2.10
2018-02-04T05:33:59.538Z,1.70
2018-02-04T05:36:27.341Z,1.80
2018-02-04T05:38:54.874Z,2.10
2018-02-04T05:41:22.438Z,1.80
2018-02-04T05:43:50.500Z,1.83
2018-02-04T05:46:18.098Z,1.60
2018-02-04T05:48:45.654Z,1.80
2018-02-04T05:51:13.376Z,1.60
2018-02-04T05:53:41.076Z,1.63
2018-02-04T05:56:08.616Z,1.57
2018-02-04T05:58:37.669Z,1.60
2018-02-04T06:01:05.233Z,1.13
2018-02-04T06:03:32.758Z,2.20
2018-02-04T06:06:00.331Z,1.23
2018-02-04T06:08:27.972Z,1.50
2018-02-04T06:10:55.543Z,1.20
2018-02-04T06:13:23.075Z,1.60
2018-02-04T06:15:50.641Z,1.97
2018-02-04T06:18:18.172Z,2.00
2018-02-04T06:20:45.774Z,1.77
2018-02-04T06:23:13.750Z,1.57
2018-02-04T06:25:41.305Z,1.43
2018-02-04T06:28:08.901Z,2.37
2018-02-04T06:30:36.439Z,1.30
2018-02-04T06:33:04.047Z,1.33
2018-02-04T06:35:31.839Z,1.53
2018-02-04T06:37:59.417Z,1.47
2018-02-04T06:40:26.998Z,1.77
2018-02-04T06:42:54.592Z,2.03
2018-02-04T06:45:22.134Z,1.83
2018-02-04T06:47:49.769Z,2.10
2018-02-04T06:50:17.354Z,2.30
2018-02-04T06:52:45.581Z,1.93
2018-02-04T06:55:13.101Z,2.27
2018-02-04T06:57:41.607Z,2.40
2018-02-04T07:00:22.323Z,1.77
2018-02-04T07:02:49.890Z,2.23
2018-02-04T07:05:17.472Z,3.53
2018-02-04T07:07:45.372Z,1.97
2018-02-04T07:10:13.448Z,2.50
2018-02-04T07:12:41.016Z,1.80
2018-02-04T07:15:08.590Z,1.90
2018-02-04T07:17:36.122Z,1.53
2018-02-04T07:20:03.751Z,1.97
2018-02-04T07:22:31.800Z,3.73
2018-02-04T07:24:59.692Z,2.83
2018-02-04T07:27:27.258Z,3.73
2018-02-04T07:29:54.835Z,2.50
2018-02-04T07:32:22.407Z,3.77
2018-02-04T07:34:50.001Z,3.50
2018-02-04T07:37:17.580Z,6.37
2018-02-04T07:39:45.389Z,7.53
2018-02-04T07:42:13.152Z,7.63
2018-02-04T07:44:40.690Z,14.70
2018-02-04T07:47:08.256Z,8.07
2018-02-04T07:49:35.794Z,6.50
2018-02-04T07:52:03.360Z,4.90
2018-02-04T07:54:31.625Z,5.87
2018-02-04T07:56:59.395Z,4.20
2018-02-04T07:59:26.931Z,4.83
2018-02-04T08:01:54.701Z,5.00
2018-02-04T08:04:22.279Z,5.87
2018-02-04T08:06:49.819Z,5.17
2018-02-04T08:09:17.403Z,6.60
2018-02-04T08:11:44.977Z,5.43
2018-02-04T08:14:12.819Z,5.67
2018-02-04T08:16:40.936Z,4.90
2018-02-04T08:19:09.357Z,5.07
2018-02-04T08:21:36.930Z,4.50
2018-02-04T08:24:04.475Z,5.20
2018-02-04T08:26:32.053Z,5.43
2018-02-04T08:28:59.592Z,4.47
2018-02-04T08:31:27.158Z,4.80
2018-02-04T08:33:54.681Z,4.83
2018-02-04T08:36:23.213Z,5.30
2018-02-04T08:38:51.115Z,4.77
2018-02-04T08:41:18.699Z,4.57
2018-02-04T08:43:46.231Z,4.93
2018-02-04T08:46:13.771Z,4.03
2018-02-04T08:48:41.355Z,4.50
2018-02-04T08:51:08.925Z,4.23
2018-02-04T08:53:37.435Z,5.40
2018-02-04T08:56:05.005Z,4.53
2018-02-04T08:58:32.577Z,4.33
2018-02-04T09:01:00.675Z,3.63
2018-02-04T09:03:28.255Z,4.20
2018-02-04T09:05:55.853Z,3.80
2018-02-04T09:08:23.396Z,4.37
2018-02-04T09:10:51.371Z,3.63
2018-02-04T09:13:19.200Z,4.10
2018-02-04T09:15:46.747Z,3.30
2018-02-04T09:18:14.341Z,4.03
2018-02-04T09:20:41.877Z,4.87
2018-02-04T09:23:09.949Z,5.40
2018-02-04T09:25:38.054Z,4.70
2018-02-04T09:28:05.578Z,3.87
2018-02-04T09:30:33.440Z,3.80
2018-02-04T09:33:01.006Z,4.47
2018-02-04T09:35:29.152Z,11.87
2018-02-04T09:37:57.312Z,8.60
2018-02-04T09:40:24.898Z,10.20
2018-02-04T09:42:52.474Z,8.77
2018-02-04T09:45:20.185Z,8.50
2018-02-04T09:47:48.023Z,7.77
2018-02-04T09:50:16.247Z,7.00
2018-02-04T09:52:44.076Z,7.30
2018-02-04T09:55:11.650Z,7.50
2018-02-04T09:57:39.223Z,8.70
2018-02-04T10:00:07.618Z,8.70
2018-02-04T10:02:35.221Z,7.67
2018-02-04T10:05:02.751Z,7.33
2018-02-04T10:07:31.281Z,7.83
2018-02-04T10:09:58.851Z,7.53
2018-02-04T10:12:26.446Z,4.17
2018-02-04T10:14:53.981Z,6.30
2018-02-04T10:17:21.659Z,6.00
2018-02-04T10:19:50.051Z,5.13
2018-02-04T10:22:18.019Z,5.97
2018-02-04T10:24:45.604Z,7.13
2018-02-04T10:27:13.192Z,5.00
2018-02-04T10:29:40.814Z,5.80
2018-02-04T10:32:08.855Z,7.03
2018-02-04T10:34:36.394Z,6.63
2018-02-04T10:37:04.477Z,9.27
2018-02-04T10:39:32.247Z,6.50
2018-02-04T10:41:59.777Z,9.17
2018-02-04T10:44:29.867Z,8.30
2018-02-04T10:46:57.460Z,7.33
2018-02-04T10:49:25.667Z,6.07
2018-02-04T10:51:58.571Z,8.20
2018-02-04T10:54:27.374Z,8.37
2018-02-04T10:56:54.919Z,8.03
2018-02-04T10:59:22.592Z,8.17
2018-02-04T11:01:50.883Z,8.00
2018-02-04T11:04:18.426Z,9.73
2018-02-04T11:06:47.789Z,7.17
2018-02-04T11:09:15.684Z,8.03
2018-02-04T11:11:43.471Z,7.50
2018-02-04T11:14:11.042Z,6.43
2018-02-04T11:16:39.707Z,6.00
2018-02-04T11:19:07.316Z,6.93
2018-02-04T11:21:34.868Z,6.27
2018-02-04T11:24:03.378Z,5.30
2018-02-04T11:26:31.037Z,5.43
2018-02-04T11:28:59.139Z,5.13
2018-02-04T11:31:26.723Z,5.10
2018-02-04T11:33:55.153Z,4.97
2018-02-04T11:36:22.836Z,5.53
2018-02-04T11:38:50.575Z,4.67
2018-02-04T11:41:18.239Z,4.73
2018-02-04T11:43:45.818Z,4.40
2018-02-04T11:46:13.888Z,4.60
2018-02-04T11:48:42.177Z,5.70
2018-02-04T11:51:09.706Z,5.23
2018-02-04T11:53:37.331Z,6.27
2018-02-04T11:56:04.925Z,6.57
2018-02-04T11:58:32.503Z,6.30
2018-02-04T12:01:00.342Z,6.37
2018-02-04T12:03:28.951Z,6.53
2018-02-04T12:05:56.550Z,5.57
2018-02-04T12:08:24.127Z,6.00
2018-02-04T12:10:51.751Z,5.97
2018-02-04T12:13:19.322Z,6.43
2018-02-04T12:15:47.260Z,7.43
2018-02-04T12:18:15.356Z,7.20
2018-02-04T12:20:43.017Z,5.60
2018-02-04T12:23:10.571Z,7.47
2018-02-04T12:25:38.114Z,7.50
2018-02-04T12:28:05.682Z,5.87
2018-02-04T12:30:34.330Z,5.57
2018-02-04T12:33:03.618Z,5.90
2018-02-04T12:35:31.202Z,5.60
2018-02-04T12:37:58.775Z,6.20
2018-02-04T12:40:27.365Z,5.17
2018-02-04T12:42:54.995Z,6.43
2018-02-04T12:45:22.675Z,6.87
2018-02-04T12:47:51.554Z,6.63
2018-02-04T12:50:19.093Z,6.33
2018-02-04T12:52:47.751Z,6.17
2018-02-04T12:55:16.381Z,5.87
2018-02-04T12:57:44.472Z,6.40
2018-02-04T13:00:12.011Z,5.70
2018-02-04T13:02:39.565Z,6.93
2018-02-04T13:05:08.077Z,7.33
2018-02-04T13:07:35.683Z,7.27
2018-02-04T13:10:04.084Z,6.30
2018-02-04T13:12:32.623Z,6.67
2018-02-04T13:15:00.166Z,7.23
2018-02-04T13:17:27.748Z,8.20
2018-02-04T13:19:55.643Z,6.57
2018-02-04T13:22:23.370Z,4.97
2018-02-04T13:24:51.842Z,5.43
2018-02-04T13:27:19.424Z,4.97
2018-02-04T13:29:46.954Z,5.27
2018-02-04T13:32:14.526Z,5.93
2018-02-04T13:34:42.064Z,6.57
2018-02-04T13:37:09.925Z,5.80
2018-02-04T13:39:38.022Z,6.00
2018-02-04T13:42:06.446Z,5.90
2018-02-04T13:44:34.531Z,5.90
2018-02-04T13:47:02.134Z,5.20
2018-02-04T13:49:29.661Z,5.67
2018-02-04T13:51:57.230Z,5.93
2018-02-04T13:54:24.933Z,6.53
2018-02-04T13:56:52.491Z,5.63
2018-02-04T13:59:20.086Z,6.17
2018-02-04T14:01:47.655Z,6.00
2018-02-04T14:04:15.981Z,5.60
2018-02-04T14:06:43.740Z,5.40
2018-02-04T14:09:12.286Z,6.70
2018-02-04T14:11:39.835Z,7.23
2018-02-04T14:14:07.414Z,7.30
2018-02-04T14:16:34.951Z,6.30
2018-02-04T14:19:03.181Z,7.10
2018-02-04T14:21:31.303Z,7.37
2018-02-04T14:23:59.196Z,8.27
2018-02-04T14:26:27.137Z,7.70
2018-02-04T14:28:54.705Z,7.43
2018-02-04T14:31:22.410Z,9.20
2018-02-04T14:33:51.302Z,8.10
2018-02-04T14:36:18.971Z,7.20
2018-02-04T14:38:46.890Z,6.47
2018-02-04T14:41:15.240Z,7.43
2018-02-04T14:43:42.830Z,7.70
2018-02-04T14:46:11.207Z,7.40
2018-02-04T14:48:38.995Z,8.07
2018-02-04T14:51:08.101Z,10.47
2018-02-04T14:53:35.865Z,9.77
2018-02-04T14:56:05.585Z,8.80
2018-02-04T14:58:33.616Z,11.00
2018-02-04T15:22:33.100Z,14.90
2018-02-04T15:25:01.190Z,11.20
2018-02-04T15:27:29.396Z,10.47
2018-02-04T15:29:57.445Z,8.50
2018-02-04T15:32:25.233Z,10.40
2018-02-04T15:34:55.926Z,10.03
2018-02-04T15:37:24.119Z,11.37
2018-02-04T15:39:52.154Z,11.20
2018-02-04T15:42:19.748Z,10.10
2018-02-04T15:44:47.300Z,12.37
2018-02-04T15:47:14.960Z,11.27
2018-02-04T15:49:43.520Z,9.40
2018-02-04T15:52:13.554Z,9.60
2018-02-04T15:54:41.110Z,11.00
2018-02-04T15:57:08.771Z,7.80
2018-02-04T15:59:36.780Z,12.70
2018-02-04T16:02:04.611Z,56.53
2018-02-04T16:04:32.203Z,19.17
2018-02-04T16:07:00.804Z,19.23
2018-02-04T16:09:28.346Z,17.80
2018-02-04T16:11:56.618Z,35.57
2018-02-04T16:14:24.215Z,18.67
2018-02-04T16:16:51.764Z,25.10
2018-02-04T16:19:20.163Z,19.33
2018-02-04T16:21:47.721Z,20.30
2018-02-04T16:24:15.322Z,16.40
2018-02-04T16:26:43.843Z,19.60
2018-02-04T16:29:12.262Z,20.53
2018-02-04T16:31:40.791Z,19.40
2018-02-04T16:34:10.050Z,18.53
2018-02-04T16:36:38.827Z,16.57
2018-02-04T16:39:07.259Z,9.93
2018-02-04T16:41:35.635Z,15.43
2018-02-04T16:44:03.612Z,17.87
2018-02-04T16:46:31.764Z,19.57
2018-02-04T16:48:59.823Z,21.00
2018-02-04T16:51:27.660Z,24.97
2018-02-04T16:53:57.311Z,17.53
2018-02-04T16:56:24.999Z,17.77
2018-02-04T16:58:53.040Z,14.90
2018-02-04T17:01:20.793Z,12.57
2018-02-04T17:03:49.652Z,13.57
2018-02-04T17:06:18.280Z,11.63
2018-02-04T17:08:46.541Z,12.97
2018-02-04T17:11:15.547Z,15.43
2018-02-04T17:13:44.178Z,20.10
2018-02-04T17:16:12.720Z,27.97
2018-02-04T17:18:40.276Z,22.93
2018-02-04T17:21:08.404Z,25.37
2018-02-04T17:23:37.725Z,26.40
2018-02-04T17:26:05.349Z,18.97
2018-02-04T17:28:32.903Z,17.83
2018-02-04T17:31:00.565Z,16.77
2018-02-04T17:33:29.298Z,16.83
2018-02-04T17:35:57.479Z,18.17
2018-02-04T17:38:25.516Z,18.30
2018-02-04T17:40:53.370Z,16.33
2018-02-04T17:43:20.967Z,15.73
2018-02-04T17:45:48.903Z,16.13
2018-02-04T17:48:16.624Z,16.07
2018-02-04T17:50:44.772Z,16.27
2018-02-04T17:53:13.620Z,14.63
2018-02-04T17:55:41.545Z,15.13
2018-02-04T17:58:09.178Z,14.93
2018-02-04T18:00:38.779Z,15.43
2018-02-04T18:03:06.678Z,14.00
2018-02-04T18:05:34.692Z,13.40
2018-02-04T18:08:02.786Z,14.17
2018-02-04T18:10:30.343Z,15.10
2018-02-04T18:12:58.862Z,18.53
2018-02-04T18:15:28.953Z,15.53
2018-02-04T18:17:58.362Z,18.07
2018-02-04T18:20:27.369Z,18.60
2018-02-04T18:22:56.140Z,18.80
2018-02-04T18:25:24.726Z,17.30
2018-02-04T18:27:52.878Z,16.47
2018-02-04T18:30:21.791Z,16.67
2018-02-04T18:32:50.021Z,17.70
2018-02-04T18:35:18.524Z,17.83
2018-02-04T18:37:46.118Z,17.30
2018-02-04T18:40:13.739Z,16.90
2018-02-04T18:42:41.336Z,17.17
2018-02-04T18:45:08.922Z,16.37
2018-02-04T18:47:36.819Z,16.37
2018-02-04T18:50:05.158Z,17.30
2018-02-04T18:52:32.712Z,17.67
2018-02-04T18:55:01.890Z,18.47
2018-02-04T18:57:29.516Z,18.03
2018-02-04T18:59:57.076Z,18.53
2018-02-04T19:02:26.144Z,17.57
2018-02-04T19:04:53.757Z,18.30
2018-02-04T19:07:21.348Z,18.87
2018-02-04T19:09:49.733Z,18.80
2018-02-04T19:12:17.745Z,19.27
2018-02-04T19:14:45.298Z,17.97
2018-02-04T19:17:13.910Z,16.87
2018-02-04T19:19:41.960Z,16.73
2018-02-04T19:22:09.557Z,15.07
2018-02-04T19:24:38.079Z,15.40
2018-02-04T19:27:05.702Z,15.53
2018-02-04T19:29:34.602Z,15.37
2018-02-04T19:32:02.156Z,14.53
2018-02-04T19:34:30.535Z,14.33
2018-02-04T19:36:58.140Z,13.60
2018-02-04T19:39:27.569Z,14.10
2018-02-04T19:41:55.171Z,13.73
2018-02-04T19:44:23.567Z,12.63
2018-02-04T19:46:52.048Z,12.90
2018-02-04T19:49:19.719Z,13.03
2018-02-04T19:51:47.366Z,12.13
2018-02-04T19:54:15.874Z,11.80
2018-02-04T19:56:43.970Z,12.20
2018-02-04T19:59:11.897Z,12.17
2018-02-04T20:01:40.580Z,11.63
2018-02-04T20:04:08.143Z,12.60
2018-02-04T20:06:36.011Z,11.53
2018-02-04T20:09:06.058Z,12.07
2018-02-04T20:11:34.014Z,11.40
2018-02-04T20:14:03.221Z,12.50
2018-02-04T20:16:31.278Z,11.87
2018-02-04T20:18:58.889Z,11.43
2018-02-04T20:21:26.447Z,10.90
2018-02-04T20:23:54.988Z,14.73
2018-02-04T20:26:22.548Z,12.90
2018-02-04T20:28:50.734Z,38.53
2018-02-04T20:31:18.368Z,28.17
2018-02-04T20:33:57.641Z,19.63
2018-02-04T20:36:25.658Z,22.77
2018-02-04T20:38:53.220Z,34.70
2018-02-04T20:41:21.728Z,30.97
2018-02-04T20:43:50.106Z,30.37
2018-02-04T20:46:17.902Z,18.60
2018-02-04T20:48:46.708Z,21.10
2018-02-04T20:51:14.540Z,20.53
2018-02-04T20:53:42.152Z,24.57
2018-02-04T20:56:09.715Z,20.67
2018-02-04T20:58:38.716Z,18.80
2018-02-04T21:01:06.284Z,18.87
2018-02-04T21:03:33.959Z,19.27
2018-02-04T21:06:01.520Z,17.23
2018-02-04T21:08:29.163Z,17.77
2018-02-04T21:10:56.738Z,15.50
2018-02-04T21:13:24.330Z,15.37
2018-02-04T21:15:52.172Z,17.80
2018-02-04T21:18:19.806Z,15.77
2018-02-04T21:20:47.583Z,16.73
2018-02-04T21:23:15.145Z,15.97
2018-02-04T21:25:42.755Z,16.03
2018-02-04T21:28:10.374Z,16.33
2018-02-04T21:30:37.942Z,16.07
2018-02-04T21:33:05.542Z,17.07
2018-02-04T21:35:33.091Z,15.67
2018-02-04T21:38:00.702Z,14.30
2018-02-04T21:40:28.260Z,15.53
2018-02-04T21:42:55.854Z,15.80
2018-02-04T21:45:23.414Z,14.80
2018-02-04T21:47:51.007Z,14.47
2018-02-04T21:50:18.965Z,14.10
2018-02-04T21:52:46.575Z,14.10
2018-02-04T21:55:14.116Z,14.33
2018-02-04T21:57:41.864Z,13.23
2018-02-04T22:00:09.575Z,13.70
2018-02-04T22:02:37.132Z,13.40
2018-02-04T22:05:05.047Z,13.77
2018-02-04T22:07:32.652Z,13.07
2018-02-04T22:10:00.200Z,12.43
2018-02-04T22:12:27.787Z,13.43
2018-02-04T22:14:55.392Z,13.33
2018-02-04T22:17:22.950Z,12.83
2018-02-04T22:19:50.548Z,12.83
2018-02-04T22:22:18.142Z,13.37
2018-02-04T22:24:46.058Z,12.40
2018-02-04T22:27:13.614Z,12.43
2018-02-04T22:29:41.158Z,11.50
2018-02-04T22:32:08.760Z,11.20
2018-02-04T22:34:36.306Z,10.97
2018-02-04T22:37:03.940Z,13.30
2018-02-04T22:39:31.495Z,12.13
2018-02-04T22:41:59.103Z,10.63
2018-02-04T22:44:26.653Z,11.30
2018-02-04T22:46:54.260Z,10.03
2018-02-04T22:49:21.864Z,11.10
2018-02-04T22:51:49.904Z,9.97
2018-02-04T22:54:17.867Z,10.20
2018-02-04T22:56:45.505Z,8.93
2018-02-04T22:59:13.114Z,9.60
2018-02-04T23:01:40.991Z,10.00
2018-02-04T23:04:08.750Z,9.03
2018-02-04T23:06:36.505Z,8.70
2018-02-04T23:09:04.172Z,8.83
2018-02-04T23:11:31.806Z,8.87
2018-02-04T23:14:00.112Z,8.60
2018-02-04T23:16:27.659Z,8.80
2018-02-04T23:18:55.255Z,9.03
2018-02-04T23:21:23.403Z,9.87
2018-02-04T23:23:51.363Z,8.93
2018-02-04T23:26:18.920Z,9.33
2018-02-04T23:28:46.511Z,8.77
2018-02-04T23:31:14.103Z,9.43
2018-02-04T23:33:41.973Z,9.17
2018-02-04T23:36:09.559Z,10.00
2018-02-04T23:38:37.103Z,10.20
2018-02-04T23:41:05.168Z,10.37
2018-02-04T23:43:32.771Z,9.33
2018-02-04T23:46:00.350Z,9.73
2018-02-04T23:48:29.289Z,11.73
2018-02-04T23:50:56.891Z,15.50
2018-02-04T23:53:24.476Z,10.43
2018-02-04T23:55:52.059Z,10.43
2018-02-04T23:58:19.608Z,11.80
